Time;durP1;ratioP1;P1;durP2;ratioP2;P2;SDS_P1;SDS_P2;PMS_P1;PMS_P2;Temp;Humidity;BMP_temperature;BMP_pressure;BME280_temperature;BME280_humidity;BME280_pressure;Samples;Min_cycle;Max_cycle;Signal;HPM_P1;HPM_P2
2023/03/30 00:02:37;;;;;;;10.25;9.25;;;22.60;66.60;;;;;;6200197;28;84421;-68
2023/03/30 00:05:41;;;;;;;9.57;8.60;;;22.50;66.60;;;;;;6197097;28;83497;-68
2023/03/30 00:08:43;;;;;;;9.90;8.90;;;22.50;66.60;;;;;;6193671;28;83896;-67
2023/03/30 00:11:46;;;;;;;11.10;9.23;;;22.50;66.60;;;;;;6201247;28;84012;-68
2023/03/30 00:14:49;;;;;;;10.68;9.57;;;22.50;66.60;;;;;;6206362;28;82967;-68
2023/03/30 00:17:53;;;;;;;10.93;9.75;;;22.50;66.70;;;;;;6215401;28;84076;-68
2023/03/30 00:20:58;;;;;;;10.40;9.40;;;22.50;66.70;;;;;;6196125;28;84160;-68
2023/03/30 00:24:00;;;;;;;10.10;9.10;;;22.50;66.60;;;;;;6194008;28;83794;-68
2023/03/30 00:27:02;;;;;;;9.98;8.98;;;22.50;66.60;;;;;;6196959;28;84046;-69
2023/03/30 00:30:05;;;;;;;10.52;9.43;;;22.50;66.60;;;;;;6205976;28;82456;-67
2023/03/30 00:33:07;;;;;;;10.30;9.30;;;22.50;66.60;;;;;;6196215;28;83970;-68
2023/03/30 00:36:10;;;;;;;10.32;9.25;;;22.50;66.70;;;;;;6205431;28;83997;-68
2023/03/30 00:39:13;;;;;;;10.23;9.23;;;22.50;66.70;;;;;;6190118;28;84189;-68
2023/03/30 00:42:16;;;;;;;9.82;8.82;;;22.40;66.70;;;;;;6188198;28;84026;-67
2023/03/30 00:45:25;;;;;;;9.95;8.95;;;22.40;66.70;;;;;;6196456;28;84414;-68
2023/03/30 00:48:30;;;;;;;10.55;9.45;;;22.40;66.70;;;;;;6205189;28;84179;-68
2023/03/30 00:51:37;;;;;;;10.25;9.18;;;22.40;66.70;;;;;;6207148;28;84016;-68
2023/03/30 00:54:40;;;;;;;9.93;8.93;;;22.40;66.90;;;;;;6197733;28;83120;-68
2023/03/30 00:57:43;;;;;;;9.98;8.80;;;22.40;66.80;;;;;;6207688;28;84080;-68
2023/03/30 01:00:46;;;;;;;10.18;9.10;;;22.40;66.70;;;;;;6202434;28;83999;-67
2023/03/30 01:03:49;;;;;;;10.35;9.35;;;22.40;66.80;;;;;;6202202;28;84044;-68
2023/03/30 01:06:54;;;;;;;9.52;8.60;;;22.40;66.80;;;;;;6202916;28;84302;-68
2023/03/30 01:09:56;;;;;;;9.75;8.75;;;22.40;66.70;;;;;;6206823;28;85064;-68
2023/03/30 01:12:58;;;;;;;9.85;8.85;;;22.40;66.70;;;;;;6201992;28;83897;-68
2023/03/30 01:16:11;;;;;;;9.48;8.48;;;22.40;66.80;;;;;;6197170;28;84213;-68
2023/03/30 01:19:42;;;;;;;9.65;8.65;;;22.40;66.80;;;;;;6206767;28;84078;-68
2023/03/30 01:23:09;;;;;;;9.23;8.32;;;22.30;66.70;;;;;;6195603;28;82912;-68
2023/03/30 01:26:44;;;;;;;9.63;8.55;;;22.40;66.90;;;;;;6205176;28;83941;-68
2023/03/30 01:30:03;;;;;;;10.02;8.20;;;22.30;66.90;;;;;;6175314;28;82915;-67
2023/03/30 01:33:34;;;;;;;9.35;8.45;;;22.30;66.90;;;;;;6211210;28;83700;-68
2023/03/30 01:36:50;;;;;;;9.40;8.50;;;22.30;66.90;;;;;;6210000;28;84040;-68
2023/03/30 01:40:04;;;;;;;9.05;8.15;;;22.30;66.80;;;;;;6187867;28;84104;-68
2023/03/30 01:43:14;;;;;;;9.20;8.30;;;22.30;66.90;;;;;;6219175;28;86371;-68
2023/03/30 01:46:25;;;;;;;9.35;8.35;;;22.30;66.80;;;;;;6211327;28;84568;-68
2023/03/30 01:49:30;;;;;;;9.40;8.50;;;22.30;66.90;;;;;;6209855;28;83851;-69
2023/03/30 01:52:40;;;;;;;8.80;7.90;;;22.20;66.80;;;;;;6210647;28;83947;-68
2023/03/30 01:55:46;;;;;;;8.82;8.00;;;22.30;66.90;;;;;;6210102;28;84116;-68
2023/03/30 01:58:52;;;;;;;8.60;7.75;;;22.30;66.90;;;;;;6209927;28;83981;-69
2023/03/30 02:01:59;;;;;;;9.13;8.10;;;22.20;66.80;;;;;;6207853;28;84107;-68
2023/03/30 02:05:05;;;;;;;8.48;7.68;;;22.30;66.90;;;;;;6205522;28;82309;-67
2023/03/30 02:08:11;;;;;;;8.82;7.93;;;22.30;67.10;;;;;;6202828;28;83077;-68
2023/03/30 02:11:15;;;;;;;8.45;7.65;;;22.20;66.90;;;;;;6209912;28;84021;-69
2023/03/30 02:14:19;;;;;;;8.88;7.97;;;22.20;66.80;;;;;;6207877;28;83850;-68
2023/03/30 02:17:23;;;;;;;8.65;7.75;;;22.20;66.90;;;;;;6187557;28;84038;-69
2023/03/30 02:20:27;;;;;;;8.65;7.68;;;22.20;66.90;;;;;;6199600;28;84039;-69
2023/03/30 02:23:34;;;;;;;8.90;8.00;;;22.20;66.90;;;;;;6210339;28;84266;-68
2023/03/30 02:26:37;;;;;;;8.18;7.38;;;22.20;67.00;;;;;;6212305;28;84114;-69
2023/03/30 02:29:41;;;;;;;8.38;7.57;;;22.20;67.00;;;;;;6211174;28;84502;-68
2023/03/30 02:32:45;;;;;;;8.35;7.55;;;22.20;67.10;;;;;;6204298;28;84046;-68
2023/03/30 02:36:08;;;;;;;8.73;7.82;;;22.20;67.00;;;;;;6201713;28;83962;-68
2023/03/30 02:39:22;;;;;;;9.38;8.00;;;22.20;67.00;;;;;;6195291;28;84064;-68
2023/03/30 02:42:45;;;;;;;8.75;7.85;;;22.20;67.00;;;;;;6197725;28;84140;-69
2023/03/30 02:45:53;;;;;;;8.10;7.30;;;22.10;67.10;;;;;;6197139;28;83842;-68
2023/03/30 02:49:05;;;;;;;8.80;7.90;;;22.10;67.10;;;;;;6209940;28;83869;-68
2023/03/30 02:52:14;;;;;;;8.57;7.70;;;22.10;67.10;;;;;;6204917;28;82945;-68
2023/03/30 02:55:21;;;;;;;11.30;7.93;;;22.20;67.10;;;;;;6196277;28;84205;-68
2023/03/30 02:58:33;;;;;;;8.98;8.07;;;22.10;67.10;;;;;;6188679;28;84077;-68
2023/03/30 03:01:40;;;;;;;8.93;8.02;;;22.10;67.10;;;;;;6206330;28;84098;-68
2023/03/30 03:04:45;;;;;;;8.70;7.90;;;22.10;67.00;;;;;;6205607;28;84287;-68
2023/03/30 03:07:47;;;;;;;9.27;8.38;;;22.10;67.20;;;;;;6205661;28;83397;-68
2023/03/30 03:10:50;;;;;;;9.10;8.20;;;22.10;67.10;;;;;;6206626;28;83980;-68
2023/03/30 03:13:54;;;;;;;8.52;7.72;;;22.10;67.10;;;;;;6208650;28;83968;-68
2023/03/30 03:16:56;;;;;;;9.05;8.07;;;22.10;67.20;;;;;;6208341;28;85288;-67
2023/03/30 03:19:58;;;;;;;9.40;8.27;;;22.10;67.20;;;;;;6196839;28;84316;-68
2023/03/30 03:23:00;;;;;;;9.20;8.30;;;22.10;67.20;;;;;;6205434;28;84091;-68
2023/03/30 03:26:02;;;;;;;9.57;8.57;;;22.10;67.30;;;;;;6209433;28;82957;-68
2023/03/30 03:29:05;;;;;;;8.73;7.82;;;22.10;67.20;;;;;;6207408;28;84455;-67
2023/03/30 03:32:07;;;;;;;9.10;8.20;;;22.10;66.80;;;;;;6207824;28;84066;-68
2023/03/30 03:35:09;;;;;;;9.10;8.20;;;22.10;66.70;;;;;;6200474;28;84462;-68
2023/03/30 03:38:12;;;;;;;9.40;8.50;;;22.10;66.60;;;;;;6198386;28;83592;-68
2023/03/30 03:41:15;;;;;;;9.82;8.82;;;22.10;66.50;;;;;;6199667;28;84156;-68
2023/03/30 03:44:18;;;;;;;9.32;8.38;;;22.10;66.40;;;;;;6199844;28;84141;-68
2023/03/30 03:47:21;;;;;;;9.13;8.23;;;22.10;66.40;;;;;;6208142;28;83867;-68
2023/03/30 03:50:24;;;;;;;9.55;8.60;;;22.20;66.40;;;;;;6202914;28;84179;-68
2023/03/30 03:53:27;;;;;;;9.27;8.38;;;22.20;66.40;;;;;;6200128;28;84065;-68
2023/03/30 03:56:29;;;;;;;9.25;8.35;;;22.20;66.40;;;;;;6207176;28;84126;-68
2023/03/30 03:59:33;;;;;;;9.43;8.50;;;22.20;66.40;;;;;;6198155;28;82917;-68
2023/03/30 04:02:35;;;;;;;10.93;9.07;;;22.20;66.40;;;;;;6217600;28;83796;-68
2023/03/30 04:05:37;;;;;;;9.00;8.10;;;22.20;66.30;;;;;;6195674;28;84421;-67
2023/03/30 04:08:39;;;;;;;9.32;8.43;;;22.30;66.30;;;;;;6201019;28;83779;-68
2023/03/30 04:11:41;;;;;;;9.65;8.65;;;22.30;66.20;;;;;;6201747;28;84311;-68
2023/03/30 04:14:45;;;;;;;9.32;8.43;;;22.30;66.20;;;;;;6203080;28;84280;-68
2023/03/30 04:17:48;;;;;;;9.38;8.48;;;22.30;66.20;;;;;;6193804;28;85032;-68
2023/03/30 04:20:50;;;;;;;9.35;8.45;;;22.40;67.10;;;;;;6209224;28;83894;-68
2023/03/30 04:23:52;;;;;;;9.98;8.98;;;22.40;66.10;;;;;;6207743;28;84058;-68
2023/03/30 04:26:56;;;;;;;9.75;8.75;;;22.40;66.10;;;;;;6208679;28;82908;-68
2023/03/30 04:30:00;;;;;;;9.60;8.60;;;22.40;66.10;;;;;;6205219;28;84483;-68
2023/03/30 04:33:03;;;;;;;9.90;8.90;;;22.40;66.10;;;;;;6183726;28;84072;-68
2023/03/30 04:36:06;;;;;;;9.48;8.57;;;22.50;66.10;;;;;;6197535;28;84084;-68
2023/03/30 04:39:08;;;;;;;8.82;7.90;;;22.50;66.10;;;;;;6208763;28;82479;-68
2023/03/30 04:42:12;;;;;;;9.02;8.13;;;22.50;66.10;;;;;;6208725;28;82939;-68
2023/03/30 04:45:17;;;;;;;10.15;9.15;;;22.50;66.10;;;;;;6208305;28;82949;-68
2023/03/30 04:48:20;;;;;;;10.88;9.40;;;22.50;66.00;;;;;;6198878;28;84991;-68
2023/03/30 04:51:23;;;;;;;9.68;8.73;;;22.50;65.90;;;;;;6199159;28;84215;-70
2023/03/30 04:54:25;;;;;;;12.15;9.02;;;22.60;66.00;;;;;;6197416;28;84047;-67
2023/03/30 04:57:27;;;;;;;15.05;13.48;;;22.50;67.70;;;;;;6194182;28;83112;-67
2023/03/30 05:00:30;;;;;;;11.43;10.32;;;22.60;69.80;;;;;;6189202;28;84021;-67
2023/03/30 05:03:32;;;;;;;11.48;10.38;;;22.70;69.50;;;;;;6205178;28;83894;-71
2023/03/30 05:06:34;;;;;;;11.48;9.70;;;22.70;70.20;;;;;;6206229;28;84060;-68
2023/03/30 05:09:36;;;;;;;10.48;9.48;;;22.80;68.80;;;;;;6208954;28;83575;-68
2023/03/30 05:12:38;;;;;;;12.65;10.35;;;22.90;67.60;;;;;;6209104;28;84007;-68
2023/03/30 05:15:42;;;;;;;10.63;9.63;;;22.90;67.20;;;;;;6199133;28;84084;-68
2023/03/30 05:18:44;;;;;;;10.63;9.52;;;22.90;67.10;;;;;;6200024;28;85069;-68
2023/03/30 05:21:46;;;;;;;10.25;9.15;;;23.00;67.10;;;;;;6196225;28;83908;-67
2023/03/30 05:24:48;;;;;;;10.32;9.23;;;22.90;67.20;;;;;;6196660;28;84068;-67
2023/03/30 05:27:50;;;;;;;10.70;9.38;;;23.00;67.20;;;;;;6221722;28;82914;-68
2023/03/30 05:30:57;;;;;;;10.57;9.40;;;23.00;67.20;;;;;;6208861;28;84071;-67
2023/03/30 05:33:59;;;;;;;10.77;9.15;;;22.90;67.10;;;;;;6200129;28;84297;-69
2023/03/30 05:37:01;;;;;;;12.55;9.40;;;23.00;67.00;;;;;;6202046;28;84105;-68
2023/03/30 05:40:07;;;;;;;10.27;8.90;;;22.90;66.90;;;;;;6199745;28;83306;-68
2023/03/30 05:43:09;;;;;;;9.75;8.32;;;22.90;66.80;;;;;;6209643;28;83999;-68
2023/03/30 05:46:12;;;;;;;9.60;8.70;;;23.00;66.80;;;;;;6207118;28;84220;-67
2023/03/30 05:49:14;;;;;;;9.40;8.38;;;22.90;66.70;;;;;;6200173;28;83886;-68
2023/03/30 05:52:16;;;;;;;9.23;8.23;;;22.90;66.70;;;;;;6198447;28;84012;-68
2023/03/30 05:55:18;;;;;;;8.80;7.97;;;22.90;66.70;;;;;;6210433;28;82644;-68
2023/03/30 05:58:20;;;;;;;9.52;8.43;;;22.90;66.70;;;;;;6210293;28;84224;-68
2023/03/30 06:01:25;;;;;;;9.02;7.90;;;22.90;66.60;;;;;;6210640;28;84249;-68
2023/03/30 06:04:27;;;;;;;10.18;8.13;;;23.00;66.70;;;;;;6196266;28;84021;-68
2023/03/30 06:07:29;;;;;;;9.88;8.10;;;23.00;66.70;;;;;;6198273;28;84166;-68
2023/03/30 06:10:31;;;;;;;8.73;7.78;;;23.00;66.70;;;;;;6202071;28;83204;-68
2023/03/30 06:13:33;;;;;;;8.50;7.57;;;23.00;66.70;;;;;;6205173;28;83970;-68
2023/03/30 06:16:37;;;;;;;9.35;8.00;;;23.00;66.70;;;;;;6196787;28;82928;-67
2023/03/30 06:19:39;;;;;;;8.88;7.15;;;23.00;66.70;;;;;;6196344;28;84869;-68
2023/03/30 06:22:41;;;;;;;8.98;7.78;;;23.00;66.70;;;;;;6209497;28;83953;-68
2023/03/30 06:25:46;;;;;;;8.25;7.45;;;23.00;66.70;;;;;;6198022;28;84156;-68
2023/03/30 06:28:48;;;;;;;8.05;7.05;;;23.00;66.70;;;;;;6207465;28;84146;-68
2023/03/30 06:31:52;;;;;;;8.40;6.97;;;23.00;66.70;;;;;;6209155;28;84112;-68
2023/03/30 06:34:54;;;;;;;8.48;7.25;;;23.00;66.70;;;;;;6208197;28;82984;-68
2023/03/30 06:37:56;;;;;;;7.80;6.90;;;23.00;66.70;;;;;;6209074;28;82972;-67
2023/03/30 06:40:58;;;;;;;7.78;6.97;;;23.00;66.70;;;;;;6207935;28;83297;-68
2023/03/30 06:44:00;;;;;;;8.30;7.45;;;23.00;66.70;;;;;;6199796;28;82945;-67
2023/03/30 06:47:04;;;;;;;7.45;6.75;;;23.00;67.00;;;;;;6198581;28;83965;-68
2023/03/30 06:50:07;;;;;;;7.70;7.00;;;23.10;66.80;;;;;;6204984;28;84908;-68
2023/03/30 06:53:09;;;;;;;7.28;6.57;;;23.00;66.70;;;;;;6199716;28;84118;-67
2023/03/30 06:56:11;;;;;;;7.53;6.80;;;23.00;66.90;;;;;;6201553;28;84082;-68
2023/03/30 06:59:14;;;;;;;8.10;6.70;;;23.00;66.90;;;;;;6198822;28;84261;-67
2023/03/30 07:02:17;;;;;;;9.63;6.80;;;23.10;67.00;;;;;;6203488;28;84064;-68
2023/03/30 07:05:23;;;;;;;9.40;6.60;;;23.10;67.10;;;;;;6199325;28;84479;-68
2023/03/30 07:08:25;;;;;;;7.25;6.53;;;23.10;67.10;;;;;;6204205;28;83869;-68
2023/03/30 07:11:27;;;;;;;9.05;6.80;;;23.10;67.20;;;;;;6206990;28;83297;-68
2023/03/30 07:14:30;;;;;;;8.27;6.20;;;23.10;67.40;;;;;;6202770;28;84116;-68
2023/03/30 07:17:33;;;;;;;8.38;6.57;;;23.10;67.20;;;;;;6196896;28;84173;-67
2023/03/30 07:20:35;;;;;;;8.32;6.05;;;23.10;67.30;;;;;;6209158;28;84957;-69
2023/03/30 07:23:37;;;;;;;7.82;6.38;;;23.10;67.30;;;;;;6209506;28;84124;-68
2023/03/30 07:26:39;;;;;;;7.55;6.50;;;23.00;67.30;;;;;;6202968;28;84346;-68
2023/03/30 07:29:42;;;;;;;7.30;6.60;;;23.00;67.30;;;;;;6208913;28;84104;-67
2023/03/30 07:32:45;;;;;;;7.53;6.32;;;23.00;67.30;;;;;;6209713;28;86409;-68
2023/03/30 07:35:48;;;;;;;6.80;6.10;;;23.10;67.30;;;;;;6209108;28;84061;-68
2023/03/30 07:38:50;;;;;;;6.90;6.20;;;23.00;67.20;;;;;;6209215;28;84123;-68
2023/03/30 07:41:52;;;;;;;7.20;6.13;;;23.00;67.20;;;;;;6210009;28;83815;-68
2023/03/30 07:44:54;;;;;;;8.70;6.35;;;23.00;67.20;;;;;;6196756;28;84109;-68
2023/03/30 07:47:58;;;;;;;6.60;5.90;;;23.00;67.20;;;;;;6198950;28;83055;-67
2023/03/30 07:51:01;;;;;;;6.63;5.93;;;23.00;67.20;;;;;;6199100;28;85507;-68
2023/03/30 07:54:04;;;;;;;7.90;6.47;;;23.00;67.30;;;;;;6208994;28;84276;-67
2023/03/30 07:57:06;;;;;;;6.20;5.60;;;23.00;67.20;;;;;;6199423;28;83995;-68
2023/03/30 08:00:11;;;;;;;7.90;6.18;;;23.00;67.20;;;;;;6206591;28;84015;-67
2023/03/30 08:03:15;;;;;;;7.20;6.45;;;23.00;67.20;;;;;;6206952;28;84054;-67
2023/03/30 08:06:17;;;;;;;8.13;6.60;;;23.00;67.30;;;;;;6200331;28;84044;-67
2023/03/30 08:09:19;;;;;;;7.13;6.40;;;23.00;67.40;;;;;;6196995;28;83982;-67
2023/03/30 08:12:21;;;;;;;7.97;6.72;;;23.00;67.30;;;;;;6197727;28;83324;-68
2023/03/30 08:15:23;;;;;;;7.65;6.85;;;23.00;67.30;;;;;;6188685;28;84127;-68
2023/03/30 08:18:27;;;;;;;7.57;6.80;;;23.00;67.30;;;;;;6207669;28;84045;-68
2023/03/30 08:21:29;;;;;;;8.75;7.85;;;23.00;67.30;;;;;;6192109;28;84160;-68
2023/03/30 08:24:31;;;;;;;8.98;8.07;;;23.00;67.30;;;;;;6206434;28;83968;-67
2023/03/30 08:27:33;;;;;;;9.00;8.10;;;23.00;68.10;;;;;;6195833;28;84042;-68
2023/03/30 08:30:35;;;;;;;8.88;7.97;;;23.00;67.20;;;;;;6193502;28;84125;-67
2023/03/30 08:33:38;;;;;;;8.50;7.70;;;22.90;67.20;;;;;;6207733;28;84222;-68
2023/03/30 08:36:40;;;;;;;9.38;8.38;;;22.90;67.20;;;;;;6191989;28;84004;-68
2023/03/30 08:39:42;;;;;;;9.27;8.27;;;22.90;67.20;;;;;;6197622;28;84159;-67
2023/03/30 08:43:05;;;;;;;9.57;8.57;;;22.90;67.30;;;;;;6213547;28;83326;-67
2023/03/30 08:46:14;;;;;;;10.52;8.52;;;22.90;67.20;;;;;;6201431;28;84231;-67
2023/03/30 08:49:21;;;;;;;9.90;8.68;;;22.90;67.20;;;;;;6202369;28;84131;-68
2023/03/30 08:52:25;;;;;;;10.57;9.00;;;22.90;67.20;;;;;;6211098;28;84976;-67
2023/03/30 08:55:31;;;;;;;9.63;8.63;;;22.90;67.20;;;;;;6213165;28;82919;-67
2023/03/30 08:58:41;;;;;;;11.85;9.32;;;22.90;67.20;;;;;;6204680;28;82986;-67
2023/03/30 09:01:50;;;;;;;10.02;9.02;;;22.90;67.20;;;;;;6209464;28;84337;-67
2023/03/30 09:05:03;;;;;;;9.88;8.82;;;22.90;67.20;;;;;;6215318;28;84078;-67
2023/03/30 09:08:14;;;;;;;10.95;9.48;;;22.90;67.20;;;;;;6200860;28;84048;-68
2023/03/30 09:11:22;;;;;;;10.60;9.05;;;22.90;67.30;;;;;;6203300;28;84132;-68
2023/03/30 09:14:32;;;;;;;11.00;9.10;;;22.90;67.20;;;;;;6212356;28;84251;-68
2023/03/30 09:17:39;;;;;;;10.30;9.18;;;22.90;67.20;;;;;;6201986;28;84018;-68
2023/03/30 09:20:43;;;;;;;10.88;9.02;;;22.90;67.20;;;;;;6208943;28;83979;-68
2023/03/30 09:23:45;;;;;;;10.13;9.10;;;22.90;67.30;;;;;;6206375;28;85109;-67
2023/03/30 09:26:52;;;;;;;10.93;9.55;;;22.80;68.20;;;;;;6211303;28;84195;-67
2023/03/30 09:30:01;;;;;;;10.45;8.95;;;22.80;67.30;;;;;;6198095;28;84261;-68
2023/03/30 09:33:12;;;;;;;11.00;9.85;;;22.80;67.40;;;;;;6210572;28;84085;-67
2023/03/30 09:36:17;;;;;;;10.15;9.15;;;22.80;67.40;;;;;;6210947;28;84036;-67
2023/03/30 09:39:21;;;;;;;10.50;9.30;;;22.80;67.40;;;;;;6199999;28;83823;-68
2023/03/30 09:42:32;;;;;;;10.50;9.40;;;22.80;67.40;;;;;;6199882;28;84052;-68
2023/03/30 09:45:35;;;;;;;12.10;9.43;;;22.80;67.40;;;;;;6198001;28;83439;-67
2023/03/30 09:48:42;;;;;;;11.27;9.23;;;22.80;67.40;;;;;;6210349;28;84038;-68
2023/03/30 09:52:02;;;;;;;11.57;9.15;;;22.80;67.50;;;;;;6206038;28;83955;-68
2023/03/30 09:55:25;;;;;;;10.07;9.07;;;22.80;67.60;;;;;;6191090;28;85260;-67
2023/03/30 09:58:29;;;;;;;10.95;9.80;;;22.70;67.50;;;;;;6198626;28;84069;-68
2023/03/30 10:01:37;;;;;;;10.73;9.55;;;22.70;67.50;;;;;;6210544;28;83264;-68
2023/03/30 10:04:56;;;;;;;10.18;9.18;;;22.70;67.50;;;;;;6190740;28;84185;-68
2023/03/30 10:08:02;;;;;;;11.20;9.38;;;22.80;67.60;;;;;;6206035;28;83935;-67
2023/03/30 10:11:05;;;;;;;10.60;9.50;;;22.70;67.50;;;;;;6200754;28;84039;-68
2023/03/30 10:14:23;;;;;;;9.82;8.93;;;22.80;67.50;;;;;;6205016;28;83963;-68
2023/03/30 10:17:26;;;;;;;10.38;9.30;;;22.80;67.50;;;;;;6209683;28;82040;-68
2023/03/30 10:20:33;;;;;;;10.02;8.88;;;22.80;67.50;;;;;;6199356;28;84100;-68
2023/03/30 10:23:40;;;;;;;9.95;8.95;;;22.80;67.60;;;;;;6205313;28;82599;-68
2023/03/30 10:26:46;;;;;;;10.25;9.25;;;22.80;67.50;;;;;;6204874;28;85073;-68
2023/03/30 10:29:51;;;;;;;10.63;9.27;;;22.80;67.60;;;;;;6203344;28;84076;-67
2023/03/30 10:32:56;;;;;;;9.90;8.75;;;22.80;67.60;;;;;;6209941;28;83717;-68
2023/03/30 10:36:00;;;;;;;9.77;8.77;;;22.70;67.40;;;;;;6208280;28;83898;-67
2023/03/30 10:39:11;;;;;;;10.50;9.45;;;22.80;67.50;;;;;;6212243;28;84046;-67
2023/03/30 10:42:17;;;;;;;10.25;9.18;;;22.80;67.40;;;;;;6190578;28;83958;-68
2023/03/30 10:45:26;;;;;;;9.88;8.88;;;22.80;67.40;;;;;;6198488;28;84048;-68
2023/03/30 10:48:42;;;;;;;9.95;8.95;;;22.80;67.40;;;;;;6200546;28;83578;-68
2023/03/30 10:51:54;;;;;;;10.10;9.10;;;22.80;67.40;;;;;;6204994;28;84013;-68
2023/03/30 10:55:04;;;;;;;9.20;8.30;;;22.80;67.40;;;;;;6210068;28;84156;-68
2023/03/30 10:58:19;;;;;;;9.57;8.57;;;22.80;67.50;;;;;;6194284;28;84940;-68
2023/03/30 11:01:29;;;;;;;10.20;9.15;;;22.80;67.50;;;;;;6202848;28;84051;-67
2023/03/30 11:04:37;;;;;;;10.10;8.68;;;22.70;67.40;;;;;;6198312;28;82965;-68
2023/03/30 11:07:43;;;;;;;10.43;9.40;;;22.70;67.40;;;;;;6198398;28;83385;-68
2023/03/30 11:10:49;;;;;;;9.98;8.98;;;22.80;67.50;;;;;;6194997;28;83948;-68
2023/03/30 11:13:54;;;;;;;8.82;7.95;;;22.80;67.50;;;;;;6199331;28;84118;-68
2023/03/30 11:17:01;;;;;;;10.18;9.18;;;22.80;67.40;;;;;;6214772;28;84136;-67
2023/03/30 11:20:17;;;;;;;9.70;8.68;;;22.80;67.40;;;;;;6209422;28;83384;-68
2023/03/30 11:23:26;;;;;;;10.23;8.90;;;22.80;67.40;;;;;;6206235;28;84267;-68
2023/03/30 11:26:37;;;;;;;9.02;8.13;;;22.80;67.40;;;;;;6204064;28;84191;-68
2023/03/30 11:29:46;;;;;;;9.02;8.13;;;22.80;67.40;;;;;;6210125;28;85018;-67
2023/03/30 11:32:53;;;;;;;10.13;9.13;;;22.80;67.40;;;;;;6186337;28;84027;-68
2023/03/30 11:36:00;;;;;;;10.23;8.95;;;22.80;67.40;;;;;;6185042;28;83053;-67
2023/03/30 11:39:06;;;;;;;10.13;9.13;;;22.80;67.40;;;;;;6196472;28;84178;-67
2023/03/30 11:42:15;;;;;;;9.85;8.85;;;22.80;67.40;;;;;;6204920;28;83555;-67
2023/03/30 11:45:24;;;;;;;9.38;8.23;;;22.70;67.40;;;;;;6195615;28;84322;-68
2023/03/30 11:48:48;;;;;;;9.90;8.90;;;22.80;67.40;;;;;;6209858;28;82835;-68
2023/03/30 11:52:04;;;;;;;9.32;8.43;;;22.70;67.30;;;;;;6196650;28;83188;-68
2023/03/30 11:55:30;;;;;;;9.90;8.90;;;22.70;67.30;;;;;;6204203;28;84010;-68
2023/03/30 11:58:36;;;;;;;9.57;8.68;;;22.80;67.40;;;;;;6185480;28;84667;-67
2023/03/30 12:02:01;;;;;;;9.25;8.35;;;22.80;67.40;;;;;;6198066;28;84962;-68
2023/03/30 12:05:10;;;;;;;10.07;9.07;;;22.80;67.30;;;;;;6207585;28;83925;-68
2023/03/30 12:08:24;;;;;;;9.93;8.93;;;22.80;67.40;;;;;;6206217;28;83865;-67
2023/03/30 12:11:33;;;;;;;8.88;7.97;;;22.70;67.40;;;;;;6207396;28;84303;-68
2023/03/30 12:14:46;;;;;;;9.52;8.52;;;22.80;67.40;;;;;;6196728;28;84221;-67
2023/03/30 12:17:54;;;;;;;9.13;8.07;;;22.70;67.40;;;;;;6198285;28;84526;-67
2023/03/30 12:21:03;;;;;;;9.38;8.45;;;22.80;67.50;;;;;;6185148;28;84106;-68
2023/03/30 12:24:17;;;;;;;8.80;7.95;;;22.70;67.40;;;;;;6207686;28;83330;-68
2023/03/30 12:27:21;;;;;;;8.57;7.68;;;22.80;67.40;;;;;;6198970;28;84096;-68
2023/03/30 12:30:29;;;;;;;9.07;8.18;;;22.70;67.40;;;;;;6207399;28;83804;-67
2023/03/30 12:33:35;;;;;;;9.23;8.32;;;22.70;67.40;;;;;;6209068;28;83872;-68
2023/03/30 12:36:39;;;;;;;9.20;8.30;;;22.70;67.40;;;;;;6203233;28;84048;-67
2023/03/30 12:39:47;;;;;;;9.60;8.60;;;22.70;67.40;;;;;;6203234;28;84259;-67
2023/03/30 12:43:00;;;;;;;8.77;7.97;;;22.70;67.40;;;;;;6206482;28;84210;-67
2023/03/30 12:46:12;;;;;;;9.27;8.38;;;22.70;67.40;;;;;;6190627;28;84154;-67
2023/03/30 12:49:21;;;;;;;8.85;7.93;;;22.70;67.50;;;;;;6213029;28;84505;-68
2023/03/30 12:52:32;;;;;;;8.52;7.72;;;22.70;67.60;;;;;;6202521;28;84289;-68
2023/03/30 12:55:43;;;;;;;8.93;8.02;;;22.70;67.50;;;;;;6207811;28;82479;-68
2023/03/30 12:59:22;;;;;;;8.60;7.70;;;22.70;67.50;;;;;;6195927;28;84039;-68
2023/03/30 13:02:56;;;;;;;8.68;7.78;;;22.70;67.50;;;;;;6196662;28;84142;-68
2023/03/30 13:06:00;;;;;;;8.18;7.38;;;22.70;68.40;;;;;;6182081;28;85027;-68
2023/03/30 13:09:31;;;;;;;8.82;7.93;;;22.70;67.40;;;;;;6192159;28;85025;-67
2023/03/30 13:12:39;;;;;;;8.93;8.02;;;22.70;68.30;;;;;;6204474;28;84026;-67
2023/03/30 13:15:47;;;;;;;9.00;8.10;;;22.70;67.40;;;;;;6206983;28;84082;-67
2023/03/30 13:18:56;;;;;;;8.45;7.57;;;22.70;67.20;;;;;;6207717;28;83212;-67
2023/03/30 13:22:04;;;;;;;8.40;7.38;;;22.70;67.20;;;;;;6205774;28;84014;-67
2023/03/30 13:25:25;;;;;;;8.50;7.70;;;22.70;67.20;;;;;;6205361;28;84025;-68
2023/03/30 13:28:47;;;;;;;7.95;7.20;;;22.70;67.10;;;;;;6197258;28;83531;-67
2023/03/30 13:32:13;;;;;;;8.05;7.25;;;22.70;67.10;;;;;;6191461;28;84167;-68
2023/03/30 13:35:37;;;;;;;8.20;7.40;;;22.70;67.10;;;;;;6209923;28;84043;-68
2023/03/30 13:39:08;;;;;;;7.90;7.10;;;22.70;67.10;;;;;;6209302;28;85053;-67
2023/03/30 13:42:25;;;;;;;7.97;7.18;;;22.70;67.10;;;;;;6201364;28;83926;-68
2023/03/30 13:45:36;;;;;;;8.38;7.40;;;22.70;67.00;;;;;;6207271;28;84575;-67
2023/03/30 13:49:04;;;;;;;7.85;7.05;;;22.60;67.00;;;;;;6210165;28;83969;-67
2023/03/30 13:52:12;;;;;;;7.82;7.03;;;22.70;67.10;;;;;;6204429;28;85107;-67
2023/03/30 13:55:18;;;;;;;7.60;6.80;;;22.70;66.90;;;;;;6209423;28;83364;-67
2023/03/30 13:58:23;;;;;;;7.97;7.18;;;22.70;67.80;;;;;;6198356;28;84071;-67
2023/03/30 14:01:25;;;;;;;7.60;6.80;;;22.70;67.00;;;;;;6210686;28;82667;-67
2023/03/30 14:04:30;;;;;;;7.65;6.85;;;22.60;67.10;;;;;;6211631;28;82896;-67
2023/03/30 14:07:41;;;;;;;7.30;6.60;;;22.70;67.30;;;;;;6198781;28;84358;-67
2023/03/30 14:10:47;;;;;;;7.85;7.05;;;22.60;67.20;;;;;;6207921;28;85001;-67
2023/03/30 14:13:52;;;;;;;7.22;6.53;;;22.60;67.30;;;;;;6201512;28;84053;-67
2023/03/30 14:16:54;;;;;;;7.05;6.35;;;22.60;67.40;;;;;;6215096;28;82934;-67
2023/03/30 14:20:08;;;;;;;7.90;7.10;;;22.60;67.40;;;;;;6204550;28;83974;-68
2023/03/30 14:23:17;;;;;;;6.95;6.25;;;22.60;67.40;;;;;;6210170;28;83935;-67
2023/03/30 14:26:23;;;;;;;7.38;6.68;;;22.60;67.40;;;;;;6187614;28;84110;-67
2023/03/30 14:29:29;;;;;;;7.38;6.55;;;22.60;67.40;;;;;;6211258;28;84095;-67
2023/03/30 14:32:31;;;;;;;7.07;6.35;;;22.60;67.40;;;;;;6201444;28;83950;-67
2023/03/30 14:35:33;;;;;;;7.10;6.40;;;22.60;67.40;;;;;;6195669;28;83904;-67
2023/03/30 14:38:39;;;;;;;8.25;6.68;;;22.60;67.50;;;;;;6209149;28;84231;-67
2023/03/30 14:41:42;;;;;;;8.40;6.28;;;22.60;67.60;;;;;;6210014;28;84922;-67
2023/03/30 14:44:47;;;;;;;7.32;6.63;;;22.60;67.60;;;;;;6209450;28;83235;-67
2023/03/30 14:47:50;;;;;;;7.10;6.30;;;22.60;67.60;;;;;;6202000;28;83077;-68
2023/03/30 14:50:52;;;;;;;7.20;6.32;;;22.60;67.60;;;;;;6209990;28;84450;-67
2023/03/30 14:53:56;;;;;;;6.75;6.10;;;22.60;67.60;;;;;;6208967;28;84130;-67
2023/03/30 14:57:01;;;;;;;7.30;6.55;;;22.60;67.60;;;;;;6199970;28;84566;-67
2023/03/30 15:00:11;;;;;;;6.78;6.18;;;22.60;67.70;;;;;;6206769;28;83969;-67
2023/03/30 15:03:14;;;;;;;6.35;5.72;;;22.60;67.60;;;;;;6189250;28;82251;-67
2023/03/30 15:06:23;;;;;;;7.13;6.00;;;22.60;67.60;;;;;;6204588;28;84149;-67
2023/03/30 15:09:27;;;;;;;6.20;5.60;;;22.60;67.70;;;;;;6202915;28;82935;-67
2023/03/30 15:12:33;;;;;;;6.40;5.80;;;22.60;67.60;;;;;;6202584;28;84978;-67
2023/03/30 15:15:36;;;;;;;6.22;5.63;;;22.60;67.60;;;;;;6196771;28;84196;-67
2023/03/30 15:18:38;;;;;;;6.35;5.75;;;22.60;67.60;;;;;;6210034;28;84010;-67
2023/03/30 15:21:40;;;;;;;7.43;6.43;;;22.60;67.70;;;;;;6204244;28;84046;-67
2023/03/30 15:24:44;;;;;;;6.15;5.55;;;22.60;67.70;;;;;;6208964;28;84038;-67
2023/03/30 15:27:51;;;;;;;7.13;6.10;;;22.60;67.70;;;;;;6208655;28;82904;-67
2023/03/30 15:30:53;;;;;;;6.65;5.57;;;22.60;67.70;;;;;;6209310;28;84026;-67
2023/03/30 15:33:58;;;;;;;6.22;5.63;;;22.60;67.70;;;;;;6194739;28;83780;-67
2023/03/30 15:37:00;;;;;;;5.97;5.38;;;22.60;67.60;;;;;;6196381;28;84112;-67
2023/03/30 15:40:22;;;;;;;6.40;5.78;;;22.60;67.60;;;;;;6209908;28;84308;-67
2023/03/30 15:43:28;;;;;;;5.82;5.28;;;22.60;67.60;;;;;;6214161;28;83921;-67
2023/03/30 15:46:32;;;;;;;7.30;5.75;;;22.60;67.60;;;;;;6202711;28;82821;-67
2023/03/30 15:49:40;;;;;;;6.03;5.43;;;22.60;67.60;;;;;;6208230;28;83990;-67
2023/03/30 15:52:44;;;;;;;5.85;5.25;;;22.60;67.60;;;;;;6197316;28;85285;-67
2023/03/30 15:55:51;;;;;;;5.72;5.10;;;22.60;67.60;;;;;;6194515;28;84357;-66
2023/03/30 15:58:53;;;;;;;5.50;4.88;;;22.60;67.60;;;;;;6208671;28;84027;-67
2023/03/30 16:02:00;;;;;;;5.40;4.90;;;22.50;67.60;;;;;;6208937;28;84107;-67
2023/03/30 16:05:05;;;;;;;5.50;5.00;;;22.60;67.60;;;;;;6197435;28;83386;-67
2023/03/30 16:08:08;;;;;;;5.45;4.90;;;22.60;67.60;;;;;;6209480;28;84007;-67